sensor_id;sensor_type;location;lat;lon;timestamp;pressure;altitude;pressure_sealevel;temperature;humidity
48352;BME280;34163;49.314;6.752;2023-08-08T07:51:07;99745.75;;;10.85;100.00
48352;BME280;34163;49.314;6.752;2023-08-08T07:53:32;99747.69;;;10.82;100.00
48352;BME280;34163;49.314;6.752;2023-08-08T07:55:58;99747.53;;;10.85;100.00
48352;BME280;34163;49.314;6.752;2023-08-08T07:58:23;99746.00;;;11.00;100.00
48352;BME280;34163;49.314;6.752;2023-08-08T08:00:50;99748.84;;;10.95;100.00
48352;BME280;34163;49.314;6.752;2023-08-08T08:03:17;99748.44;;;11.04;100.00
48352;BME280;34163;49.314;6.752;2023-08-08T08:05:42;99746.06;;;10.98;100.00
48352;BME280;34163;49.314;6.752;2023-08-08T08:08:07;99745.41;;;10.93;100.00
48352;BME280;34163;49.314;6.752;2023-08-08T08:10:33;99748.91;;;10.94;100.00
48352;BME280;34163;49.314;6.752;2023-08-08T08:12:58;99742.50;;;10.99;100.00
48352;BME280;34163;49.314;6.752;2023-08-08T08:15:24;99739.31;;;10.91;100.00
48352;BME280;34163;49.314;6.752;2023-08-08T08:17:49;99734.75;;;10.95;100.00
48352;BME280;34163;49.314;6.752;2023-08-08T08:20:14;99737.47;;;10.93;100.00
48352;BME280;34163;49.314;6.752;2023-08-08T08:22:40;99728.44;;;10.97;100.00
48352;BME280;34163;49.314;6.752;2023-08-08T08:25:05;99726.13;;;10.89;100.00
48352;BME280;34163;49.314;6.752;2023-08-08T08:27:34;99730.44;;;10.92;100.00
48352;BME280;34163;49.314;6.752;2023-08-08T08:29:59;99723.31;;;10.93;100.00
48352;BME280;34163;49.314;6.752;2023-08-08T08:32:25;99727.78;;;10.92;100.00
48352;BME280;34163;49.314;6.752;2023-08-08T08:34:50;99724.00;;;10.98;100.00
48352;BME280;34163;49.314;6.752;2023-08-08T08:37:15;99728.44;;;10.97;100.00
48352;BME280;34163;49.314;6.752;2023-08-08T08:39:40;99721.75;;;10.88;100.00
48352;BME280;34163;49.314;6.752;2023-08-08T08:42:06;99725.13;;;10.92;100.00
48352;BME280;34163;49.314;6.752;2023-08-08T08:44:32;99724.22;;;10.93;100.00
48352;BME280;34163;49.314;6.752;2023-08-08T08:47:03;99730.28;;;10.95;100.00
48352;BME280;34163;49.314;6.752;2023-08-08T08:49:32;99717.97;;;10.94;100.00
48352;BME280;34163;49.314;6.752;2023-08-08T08:52:00;99726.72;;;10.96;100.00
48352;BME280;34163;49.314;6.752;2023-08-08T08:54:27;99726.13;;;10.89;100.00
48352;BME280;34163;49.314;6.752;2023-08-08T08:56:53;99717.38;;;10.87;100.00
48352;BME280;34163;49.314;6.752;2023-08-08T08:59:18;99717.88;;;10.96;100.00
48352;BME280;34163;49.314;6.752;2023-08-08T09:01:43;99716.84;;;11.00;100.00
48352;BME280;34163;49.314;6.752;2023-08-08T09:04:09;99713.22;;;11.01;100.00
48352;BME280;34163;49.314;6.752;2023-08-08T09:06:35;99709.09;;;10.95;100.00
48352;BME280;34163;49.314;6.752;2023-08-08T09:09:00;99705.53;;;10.96;100.00
48352;BME280;34163;49.314;6.752;2023-08-08T09:11:25;99711.03;;;10.92;100.00
48352;BME280;34163;49.314;6.752;2023-08-08T09:13:51;99705.53;;;10.96;100.00
48352;BME280;34163;49.314;6.752;2023-08-08T09:16:16;99713.81;;;10.88;100.00
48352;BME280;34163;49.314;6.752;2023-08-08T09:18:41;99715.59;;;10.88;100.00
48352;BME280;34163;49.314;6.752;2023-08-08T09:21:07;99686.19;;;20.92;100.00
48352;BME280;34163;49.314;6.752;2023-08-08T09:23:33;99678.59;;;24.39;100.00
48352;BME280;34163;49.314;6.752;2023-08-08T09:25:59;99680.53;;;22.15;100.00
48352;BME280;34163;49.314;6.752;2023-08-08T09:28:24;99704.19;;;14.87;100.00
48352;BME280;34163;49.314;6.752;2023-08-08T09:30:50;99711.09;;;12.88;100.00
48352;BME280;34163;49.314;6.752;2023-08-08T09:33:16;99725.06;;;12.24;100.00
48352;BME280;34163;49.314;6.752;2023-08-08T09:35:42;99718.44;;;12.15;100.00
48352;BME280;34163;49.314;6.752;2023-08-08T09:38:07;99710.47;;;12.15;100.00
48352;BME280;34163;49.314;6.752;2023-08-08T09:40:32;99708.97;;;12.09;100.00
48352;BME280;34163;49.314;6.752;2023-08-08T09:42:58;99710.72;;;11.91;100.00
48352;BME280;34163;49.314;6.752;2023-08-08T09:45:26;99705.22;;;11.77;100.00
48352;BME280;34163;49.314;6.752;2023-08-08T09:47:51;99703.28;;;11.80;100.00
48352;BME280;34163;49.314;6.752;2023-08-08T09:50:19;99703.03;;;11.68;100.00
48352;BME280;34163;49.314;6.752;2023-08-08T09:52:45;99702.16;;;11.67;100.00
48352;BME280;34163;49.314;6.752;2023-08-08T09:55:11;99706.25;;;11.74;100.00
48352;BME280;34163;49.314;6.752;2023-08-08T09:57:38;99702.06;;;11.51;100.00
48352;BME280;34163;49.314;6.752;2023-08-08T10:00:05;99701.06;;;11.54;100.00
48352;BME280;34163;49.314;6.752;2023-08-08T10:02:35;99696.38;;;11.59;100.00
48352;BME280;34163;49.314;6.752;2023-08-08T10:05:08;99698.22;;;11.39;100.00
48352;BME280;34163;49.314;6.752;2023-08-08T10:07:34;99702.19;;;11.48;100.00
48352;BME280;34163;49.314;6.752;2023-08-08T10:10:00;99697.81;;;11.47;100.00
48352;BME280;34163;49.314;6.752;2023-08-08T10:12:25;99701.63;;;11.41;100.00
48352;BME280;34163;49.314;6.752;2023-08-08T10:14:51;99698.78;;;11.46;100.00
48352;BME280;34163;49.314;6.752;2023-08-08T10:17:17;99696.97;;;11.47;100.00
48352;BME280;34163;49.314;6.752;2023-08-08T10:19:56;99699.47;;;11.50;100.00
48352;BME280;34163;49.314;6.752;2023-08-08T10:22:22;99701.19;;;11.51;100.00
48352;BME280;34163;49.314;6.752;2023-08-08T10:24:50;99688.81;;;11.32;100.00
48352;BME280;34163;49.314;6.752;2023-08-08T10:27:16;99696.75;;;11.32;100.00
48352;BME280;34163;49.314;6.752;2023-08-08T10:29:52;99695.41;;;11.42;100.00
48352;BME280;34163;49.314;6.752;2023-08-08T10:32:21;99685.31;;;11.32;100.00
48352;BME280;34163;49.314;6.752;2023-08-08T10:34:49;99686.88;;;11.17;100.00
48352;BME280;34163;49.314;6.752;2023-08-08T10:37:15;99687.25;;;11.28;100.00
48352;BME280;34163;49.314;6.752;2023-08-08T10:42:18;99692.69;;;11.25;100.00
48352;BME280;34163;49.314;6.752;2023-08-08T10:44:49;99690.25;;;11.39;100.00
48352;BME280;34163;49.314;6.752;2023-08-08T10:47:20;99689.59;;;11.34;100.00
48352;BME280;34163;49.314;6.752;2023-08-08T10:49:55;99691.53;;;11.31;100.00
48352;BME280;34163;49.314;6.752;2023-08-08T10:52:20;99691.09;;;11.21;100.00
48352;BME280;34163;49.314;6.752;2023-08-08T10:54:51;99686.50;;;11.24;100.00
48352;BME280;34163;49.314;6.752;2023-08-08T10:57:16;99689.44;;;11.37;100.00
48352;BME280;34163;49.314;6.752;2023-08-08T10:59:44;99696.69;;;11.15;100.00
48352;BME280;34163;49.314;6.752;2023-08-08T11:02:09;99689.59;;;11.34;100.00
48352;BME280;34163;49.314;6.752;2023-08-08T11:04:34;99680.06;;;11.49;100.00
48352;BME280;34163;49.314;6.752;2023-08-08T11:07:00;99685.50;;;11.46;100.00
48352;BME280;34163;49.314;6.752;2023-08-08T11:09:26;99684.81;;;11.23;100.00
48352;BME280;34163;49.314;6.752;2023-08-08T11:11:52;99678.78;;;11.20;100.00
48352;BME280;34163;49.314;6.752;2023-08-08T11:14:18;99696.03;;;11.48;100.00
48352;BME280;34163;49.314;6.752;2023-08-08T11:16:47;99686.16;;;11.32;100.00
48352;BME280;34163;49.314;6.752;2023-08-08T11:19:13;99684.94;;;11.39;100.00
48352;BME280;34163;49.314;6.752;2023-08-08T11:21:40;99678.56;;;11.24;100.00
48352;BME280;34163;49.314;6.752;2023-08-08T11:24:06;99685.88;;;11.19;100.00
48352;BME280;34163;49.314;6.752;2023-08-08T11:26:33;99678.13;;;11.15;100.00
48352;BME280;34163;49.314;6.752;2023-08-08T11:28:59;99675.34;;;11.18;100.00
48352;BME280;34163;49.314;6.752;2023-08-08T11:31:24;99679.88;;;11.16;100.00
48352;BME280;34163;49.314;6.752;2023-08-08T11:33:50;99677.06;;;11.19;100.00
48352;BME280;34163;49.314;6.752;2023-08-08T11:36:15;99680.72;;;11.16;100.00
48352;BME280;34163;49.314;6.752;2023-08-08T11:38:41;99678.00;;;11.18;100.00
48352;BME280;34163;49.314;6.752;2023-08-08T11:41:08;99671.97;;;11.33;100.00
48352;BME280;34163;49.314;6.752;2023-08-08T11:43:33;99662.03;;;11.56;100.00
48352;BME280;34163;49.314;6.752;2023-08-08T11:46:02;99665.91;;;11.49;100.00
48352;BME280;34163;49.314;6.752;2023-08-08T11:48:28;99662.91;;;11.37;100.00
48352;BME280;34163;49.314;6.752;2023-08-08T11:50:53;99659.34;;;11.38;100.00
48352;BME280;34163;49.314;6.752;2023-08-08T11:53:19;99655.91;;;11.36;100.00
48352;BME280;34163;49.314;6.752;2023-08-08T11:55:44;99654.94;;;11.37;100.00
48352;BME280;34163;49.314;6.752;2023-08-08T11:58:12;99653.06;;;11.22;100.00
48352;BME280;34163;49.314;6.752;2023-08-08T12:00:37;99651.31;;;11.21;100.00
48352;BME280;34163;49.314;6.752;2023-08-08T12:03:03;99655.69;;;11.41;100.00
48352;BME280;34163;49.314;6.752;2023-08-08T12:05:36;99652.81;;;11.45;100.00
48352;BME280;34163;49.314;6.752;2023-08-08T12:08:04;99649.50;;;11.40;100.00
48352;BME280;34163;49.314;6.752;2023-08-08T12:10:29;99649.72;;;11.36;100.00
48352;BME280;34163;49.314;6.752;2023-08-08T12:12:55;99649.38;;;11.24;100.00
48352;BME280;34163;49.314;6.752;2023-08-08T12:15:22;99640.75;;;11.38;100.00
48352;BME280;34163;49.314;6.752;2023-08-08T12:17:47;99640.13;;;11.33;100.00
48352;BME280;34163;49.314;6.752;2023-08-08T12:20:14;99626.47;;;11.23;100.00
48352;BME280;34163;49.314;6.752;2023-08-08T12:22:39;99636.25;;;11.40;100.00
48352;BME280;34163;49.314;6.752;2023-08-08T12:25:05;99628.53;;;11.17;100.00
48352;BME280;34163;49.314;6.752;2023-08-08T12:27:30;99630.88;;;11.23;100.00
48352;BME280;34163;49.314;6.752;2023-08-08T12:29:57;99630.13;;;11.21;100.00
48352;BME280;34163;49.314;6.752;2023-08-08T12:32:24;99632.09;;;11.35;100.00
48352;BME280;34163;49.314;6.752;2023-08-08T12:34:51;99634.44;;;11.60;100.00
48352;BME280;34163;49.314;6.752;2023-08-08T12:37:17;99645.84;;;11.43;100.00
48352;BME280;34163;49.314;6.752;2023-08-08T12:39:42;99647.41;;;11.47;100.00
48352;BME280;34163;49.314;6.752;2023-08-08T12:42:08;99641.88;;;11.52;100.00
48352;BME280;34163;49.314;6.752;2023-08-08T12:44:33;99647.75;;;11.58;100.00
48352;BME280;34163;49.314;6.752;2023-08-08T12:46:58;99648.22;;;11.49;100.00
48352;BME280;34163;49.314;6.752;2023-08-08T12:49:24;99646.56;;;11.47;100.00
48352;BME280;34163;49.314;6.752;2023-08-08T12:51:50;99649.09;;;11.31;100.00
48352;BME280;34163;49.314;6.752;2023-08-08T12:54:15;99646.06;;;11.38;100.00
48352;BME280;34163;49.314;6.752;2023-08-08T12:56:40;99647.50;;;11.45;100.00
48352;BME280;34163;49.314;6.752;2023-08-08T12:59:05;99638.25;;;11.35;100.00
48352;BME280;34163;49.314;6.752;2023-08-08T13:01:31;99638.56;;;11.29;100.00
48352;BME280;34163;49.314;6.752;2023-08-08T13:03:56;99634.78;;;11.52;100.00
48352;BME280;34163;49.314;6.752;2023-08-08T13:06:21;99635.81;;;11.67;100.00
48352;BME280;34163;49.314;6.752;2023-08-08T13:08:46;99643.56;;;11.35;100.00
48352;BME280;34163;49.314;6.752;2023-08-08T13:11:12;99632.97;;;11.35;100.00
48352;BME280;34163;49.314;6.752;2023-08-08T13:13:37;99633.25;;;11.29;100.00
48352;BME280;34163;49.314;6.752;2023-08-08T13:16:02;99626.16;;;11.30;100.00
48352;BME280;34163;49.314;6.752;2023-08-08T13:18:28;99626.75;;;11.54;100.00
48352;BME280;34163;49.314;6.752;2023-08-08T13:20:53;99616.53;;;11.63;100.00
48352;BME280;34163;49.314;6.752;2023-08-08T13:23:18;99620.88;;;11.47;100.00
48352;BME280;34163;49.314;6.752;2023-08-08T13:25:44;99619.03;;;11.49;100.00
48352;BME280;34163;49.314;6.752;2023-08-08T13:28:09;99623.44;;;11.49;100.00
48352;BME280;34163;49.314;6.752;2023-08-08T13:30:34;99621.69;;;11.67;100.00
48352;BME280;34163;49.314;6.752;2023-08-08T13:33:00;99622.41;;;11.70;100.00
48352;BME280;34163;49.314;6.752;2023-08-08T13:35:25;99628.22;;;11.42;100.00
48352;BME280;34163;49.314;6.752;2023-08-08T13:37:51;99614.41;;;11.53;100.00
48352;BME280;34163;49.314;6.752;2023-08-08T13:40:17;99624.88;;;11.56;100.00
48352;BME280;34163;49.314;6.752;2023-08-08T13:42:43;99625.03;;;11.53;100.00
48352;BME280;34163;49.314;6.752;2023-08-08T13:45:12;99630.72;;;11.45;100.00
48352;BME280;34163;49.314;6.752;2023-08-08T13:47:38;99624.78;;;11.40;100.00
48352;BME280;34163;49.314;6.752;2023-08-08T13:50:03;99623.59;;;11.28;100.00
48352;BME280;34163;49.314;6.752;2023-08-08T13:52:28;99619.13;;;11.29;100.00
48352;BME280;34163;49.314;6.752;2023-08-08T13:54:56;99607.72;;;11.45;100.00
48352;BME280;34163;49.314;6.752;2023-08-08T13:57:22;99604.50;;;11.56;100.00
48352;BME280;34163;49.314;6.752;2023-08-08T13:59:47;99609.13;;;11.53;100.00
48352;BME280;34163;49.314;6.752;2023-08-08T14:02:12;99609.34;;;11.48;100.00
48352;BME280;34163;49.314;6.752;2023-08-08T14:04:38;99607.22;;;11.55;100.00
48352;BME280;34163;49.314;6.752;2023-08-08T14:07:03;99607.19;;;11.37;100.00
48352;BME280;34163;49.314;6.752;2023-08-08T14:09:28;99614.66;;;11.48;100.00
48352;BME280;34163;49.314;6.752;2023-08-08T14:11:53;99616.59;;;11.44;100.00
48352;BME280;34163;49.314;6.752;2023-08-08T14:14:19;99609.72;;;11.40;100.00
48352;BME280;34163;49.314;6.752;2023-08-08T14:16:44;99609.00;;;11.37;100.00
48352;BME280;34163;49.314;6.752;2023-08-08T14:19:09;99613.66;;;11.51;100.00
48352;BME280;34163;49.314;6.752;2023-08-08T14:21:35;99606.22;;;11.40;100.00
48352;BME280;34163;49.314;6.752;2023-08-08T14:24:00;99601.00;;;11.56;100.00
48352;BME280;34163;49.314;6.752;2023-08-08T14:26:26;99607.78;;;11.44;100.00
48352;BME280;34163;49.314;6.752;2023-08-08T14:28:52;99609.56;;;11.43;100.00
48352;BME280;34163;49.314;6.752;2023-08-08T14:31:17;99612.03;;;11.29;100.00
48352;BME280;34163;49.314;6.752;2023-08-08T14:33:42;99613.84;;;11.29;100.00
48352;BME280;34163;49.314;6.752;2023-08-08T14:36:07;99610.13;;;11.50;100.00
48352;BME280;34163;49.314;6.752;2023-08-08T14:38:34;99608.63;;;11.44;100.00
48352;BME280;34163;49.314;6.752;2023-08-08T14:41:00;99595.53;;;11.41;100.00
48352;BME280;34163;49.314;6.752;2023-08-08T14:43:25;99591.78;;;11.45;100.00
48352;BME280;34163;49.314;6.752;2023-08-08T14:45:51;99594.44;;;11.63;100.00
48352;BME280;34163;49.314;6.752;2023-08-08T14:48:16;99596.69;;;11.53;100.00
48352;BME280;34163;49.314;6.752;2023-08-08T14:50:41;99593.34;;;11.50;100.00
48352;BME280;34163;49.314;6.752;2023-08-08T14:53:07;99597.63;;;11.35;100.00
48352;BME280;34163;49.314;6.752;2023-08-08T14:55:32;99599.97;;;11.41;100.00
48352;BME280;34163;49.314;6.752;2023-08-08T14:57:57;99598.56;;;11.51;100.00
48352;BME280;34163;49.314;6.752;2023-08-08T15:00:22;99593.59;;;11.62;100.00
48352;BME280;34163;49.314;6.752;2023-08-08T15:02:47;99597.56;;;11.54;100.00
48352;BME280;34163;49.314;6.752;2023-08-08T15:05:13;99595.78;;;11.54;100.00
48352;BME280;34163;49.314;6.752;2023-08-08T15:07:38;99603.03;;;11.51;100.00
48352;BME280;34163;49.314;6.752;2023-08-08T15:10:03;99598.44;;;11.72;100.00
48352;BME280;34163;49.314;6.752;2023-08-08T15:12:29;99601.00;;;11.73;100.00
48352;BME280;34163;49.314;6.752;2023-08-08T15:14:54;99591.94;;;11.77;100.00
48352;BME280;34163;49.314;6.752;2023-08-08T15:17:19;99586.47;;;11.80;100.00
48352;BME280;34163;49.314;6.752;2023-08-08T15:19:45;99595.16;;;11.67;100.00
48352;BME280;34163;49.314;6.752;2023-08-08T15:22:10;99597.34;;;11.58;100.00
48352;BME280;34163;49.314;6.752;2023-08-08T15:24:36;99599.50;;;11.50;100.00
48352;BME280;34163;49.314;6.752;2023-08-08T15:27:02;99607.72;;;11.45;100.00
48352;BME280;34163;49.314;6.752;2023-08-08T15:29:27;99611.28;;;11.44;100.00
48352;BME280;34163;49.314;6.752;2023-08-08T15:31:52;99602.81;;;11.55;100.00
48352;BME280;34163;49.314;6.752;2023-08-08T15:34:18;99606.09;;;11.60;100.00
48352;BME280;34163;49.314;6.752;2023-08-08T15:36:43;99606.47;;;11.53;100.00
48352;BME280;34163;49.314;6.752;2023-08-08T15:39:09;99604.25;;;11.43;100.00
48352;BME280;34163;49.314;6.752;2023-08-08T15:41:34;99606.59;;;11.50;100.00
48352;BME280;34163;49.314;6.752;2023-08-08T15:44:00;99610.69;;;11.57;100.00
48352;BME280;34163;49.314;6.752;2023-08-08T15:46:25;99605.53;;;11.54;100.00
48352;BME280;34163;49.314;6.752;2023-08-08T15:48:51;99602.72;;;11.57;100.00
48352;BME280;34163;49.314;6.752;2023-08-08T15:51:16;99604.34;;;11.59;100.00
48352;BME280;34163;49.314;6.752;2023-08-08T15:53:41;99602.06;;;11.52;100.00
48352;BME280;34163;49.314;6.752;2023-08-08T15:56:07;99613.09;;;11.44;100.00
48352;BME280;34163;49.314;6.752;2023-08-08T15:58:32;99600.84;;;12.62;100.00
48352;BME280;34163;49.314;6.752;2023-08-08T16:00:57;99601.56;;;11.80;100.00
48352;BME280;34163;49.314;6.752;2023-08-08T16:03:22;99598.81;;;11.81;100.00
48352;BME280;34163;49.314;6.752;2023-08-08T16:05:48;99594.44;;;11.63;100.00
48352;BME280;34163;49.314;6.752;2023-08-08T16:08:13;99594.44;;;11.45;100.00
48352;BME280;34163;49.314;6.752;2023-08-08T16:10:38;99594.44;;;11.45;100.00
48352;BME280;34163;49.314;6.752;2023-08-08T16:13:04;99598.66;;;11.50;100.00
48352;BME280;34163;49.314;6.752;2023-08-08T16:15:29;99598.31;;;11.38;100.00
48352;BME280;34163;49.314;6.752;2023-08-08T16:17:54;99598.34;;;11.56;100.00
48352;BME280;34163;49.314;6.752;2023-08-08T16:20:20;99600.84;;;11.59;100.00
48352;BME280;34163;49.314;6.752;2023-08-08T16:22:45;99603.63;;;11.38;100.00
48352;BME280;34163;49.314;6.752;2023-08-08T16:25:10;99605.25;;;11.23;100.00
48352;BME280;34163;49.314;6.752;2023-08-08T16:27:35;99600.31;;;11.16;100.00
48352;BME280;34163;49.314;6.752;2023-08-08T16:30:01;99611.53;;;11.21;100.00
48352;BME280;34163;49.314;6.752;2023-08-08T16:32:26;99608.22;;;10.98;100.00
48352;BME280;34163;49.314;6.752;2023-08-08T16:34:52;99610.28;;;10.92;100.00
48352;BME280;34163;49.314;6.752;2023-08-08T16:37:17;99602.06;;;10.98;100.00
48352;BME280;34163;49.314;6.752;2023-08-08T16:39:42;99600.19;;;10.81;100.00
48352;BME280;34163;49.314;6.752;2023-08-08T16:42:08;99604.50;;;10.64;100.00
48352;BME280;34163;49.314;6.752;2023-08-08T16:44:33;99608.56;;;10.71;100.00
48352;BME280;34163;49.314;6.752;2023-08-08T16:46:58;99606.50;;;10.39;100.00
48352;BME280;34163;49.314;6.752;2023-08-08T16:49:24;99609.97;;;10.20;100.00
48352;BME280;34163;49.314;6.752;2023-08-08T16:51:49;99600.28;;;9.98;100.00
48352;BME280;34163;49.314;6.752;2023-08-08T16:54:14;99591.03;;;9.88;100.00
48352;BME280;34163;49.314;6.752;2023-08-08T16:56:39;99589.03;;;9.73;100.00
48352;BME280;34163;49.314;6.752;2023-08-08T16:59:04;99593.34;;;9.55;100.00
48352;BME280;34163;49.314;6.752;2023-08-08T17:01:30;99591.72;;;9.51;100.00
48352;BME280;34163;49.314;6.752;2023-08-08T17:03:55;99596.13;;;9.30;100.00
48352;BME280;34163;49.314;6.752;2023-08-08T17:06:20;99599.38;;;9.14;100.00
48352;BME280;34163;49.314;6.752;2023-08-08T17:08:45;99601.75;;;8.98;100.00
48352;BME280;34163;49.314;6.752;2023-08-08T17:11:11;99613.44;;;8.93;100.00
48352;BME280;34163;49.314;6.752;2023-08-08T17:13:38;99610.22;;;9.08;100.00
48352;BME280;34163;49.314;6.752;2023-08-08T17:16:03;99607.44;;;9.11;100.00
48352;BME280;34163;49.314;6.752;2023-08-08T17:18:28;99608.91;;;9.18;100.00
48352;BME280;34163;49.314;6.752;2023-08-08T17:20:56;99605.72;;;9.32;100.00
48352;BME280;34163;49.314;6.752;2023-08-08T17:23:29;99608.47;;;9.51;100.00
48352;BME280;34163;49.314;6.752;2023-08-08T17:25:58;99605.31;;;9.63;100.00
48352;BME280;34163;49.314;6.752;2023-08-08T17:28:23;99603.75;;;9.80;100.00
48352;BME280;34163;49.314;6.752;2023-08-08T17:30:53;99601.44;;;9.93;100.00
48352;BME280;34163;49.314;6.752;2023-08-08T17:33:19;99600.81;;;10.07;100.00
48352;BME280;34163;49.314;6.752;2023-08-08T17:35:45;99599.38;;;10.20;100.00
48352;BME280;34163;49.314;6.752;2023-08-08T17:38:10;99588.44;;;10.28;100.00
48352;BME280;34163;49.314;6.752;2023-08-08T17:40:35;99584.78;;;10.30;100.00
48352;BME280;34163;49.314;6.752;2023-08-08T17:43:01;99583.56;;;10.39;100.00
48352;BME280;34163;49.314;6.752;2023-08-08T17:45:26;99580.19;;;10.35;100.00
48352;BME280;34163;49.314;6.752;2023-08-08T17:47:51;99578.97;;;10.43;100.00
48352;BME280;34163;49.314;6.752;2023-08-08T17:50:17;99585.59;;;10.53;100.00
48352;BME280;34163;49.314;6.752;2023-08-08T17:52:42;99592.44;;;10.57;100.00
48352;BME280;34163;49.314;6.752;2023-08-08T17:55:07;99586.56;;;10.50;100.00
48352;BME280;34163;49.314;6.752;2023-08-08T17:57:32;99588.94;;;10.57;100.00
48352;BME280;34163;49.314;6.752;2023-08-08T17:59:58;99577.31;;;10.59;100.00
48352;BME280;34163;49.314;6.752;2023-08-08T18:02:23;99588.72;;;10.61;100.00
48352;BME280;34163;49.314;6.752;2023-08-08T18:04:52;99584.22;;;10.63;100.00
48352;BME280;34163;49.314;6.752;2023-08-08T18:07:17;99572.69;;;10.64;100.00
48352;BME280;34163;49.314;6.752;2023-08-08T18:09:42;99572.38;;;10.70;100.00
48352;BME280;34163;49.314;6.752;2023-08-08T18:12:10;99581.13;;;10.72;100.00
48352;BME280;34163;49.314;6.752;2023-08-08T18:14:35;99576.41;;;10.79;100.00
48352;BME280;34163;49.314;6.752;2023-08-08T18:17:01;99579.06;;;10.79;100.00
48352;BME280;34163;49.314;6.752;2023-08-08T18:19:26;99586.09;;;10.80;100.00
48352;BME280;34163;49.314;6.752;2023-08-08T18:21:51;99588.56;;;11.02;100.00
48352;BME280;34163;49.314;6.752;2023-08-08T18:24:16;99592.28;;;10.41;100.00
48352;BME280;34163;49.314;6.752;2023-08-08T18:26:42;99590.06;;;9.70;100.00
48352;BME280;34163;49.314;6.752;2023-08-08T18:29:07;99580.00;;;9.36;100.00
48352;BME280;34163;49.314;6.752;2023-08-08T18:31:32;99583.59;;;9.13;100.00
48352;BME280;34163;49.314;6.752;2023-08-08T18:33:58;99572.50;;;9.03;100.00
48352;BME280;34163;49.314;6.752;2023-08-08T18:36:23;99568.66;;;8.89;100.00
48352;BME280;34163;49.314;6.752;2023-08-08T18:38:49;99566.91;;;8.88;100.00
48352;BME280;34163;49.314;6.752;2023-08-08T18:41:14;99565.38;;;8.83;100.00
48352;BME280;34163;49.314;6.752;2023-08-08T18:43:39;99570.69;;;8.83;100.00
48352;BME280;34163;49.314;6.752;2023-08-08T18:46:05;99563.91;;;8.76;100.00
48352;BME280;34163;49.314;6.752;2023-08-08T18:48:30;99565.13;;;8.67;100.00
48352;BME280;34163;49.314;6.752;2023-08-08T18:50:55;99561.75;;;8.63;100.00
48352;BME280;34163;49.314;6.752;2023-08-08T18:53:21;99560.75;;;8.66;100.00
48352;BME280;34163;49.314;6.752;2023-08-08T18:58:21;99563.63;;;8.60;100.00
48352;BME280;34163;49.314;6.752;2023-08-08T19:00:47;99562.78;;;8.59;100.00
48352;BME280;34163;49.314;6.752;2023-08-08T19:03:12;99558.56;;;8.53;100.00
48352;BME280;34163;49.314;6.752;2023-08-08T19:05:38;99569.13;;;8.53;100.00
48352;BME280;34163;49.314;6.752;2023-08-08T19:08:03;99569.28;;;8.50;100.00
48352;BME280;34163;49.314;6.752;2023-08-08T19:10:28;99566.38;;;8.57;100.00
48352;BME280;34163;49.314;6.752;2023-08-08T19:12:54;99571.84;;;8.52;100.00
48352;BME280;34163;49.314;6.752;2023-08-08T19:15:19;99576.25;;;8.51;100.00
48352;BME280;34163;49.314;6.752;2023-08-08T19:17:45;99570.06;;;8.52;100.00
48352;BME280;34163;49.314;6.752;2023-08-08T19:20:11;99578.16;;;8.48;100.00
48352;BME280;34163;49.314;6.752;2023-08-08T19:22:36;99573.91;;;8.44;100.00
48352;BME280;34163;49.314;6.752;2023-08-08T19:25:02;99574.78;;;8.44;100.00
48352;BME280;34163;49.314;6.752;2023-08-08T19:27:28;99573.50;;;8.54;100.00
48352;BME280;34163;49.314;6.752;2023-08-08T19:29:53;99568.56;;;8.45;100.00
48352;BME280;34163;49.314;6.752;2023-08-08T19:32:18;99562.25;;;8.49;100.00
48352;BME280;34163;49.314;6.752;2023-08-08T19:34:44;99576.25;;;8.51;100.00
48352;BME280;34163;49.314;6.752;2023-08-08T19:37:10;99574.56;;;8.50;100.00
48352;BME280;34163;49.314;6.752;2023-08-08T19:39:35;99572.16;;;8.43;100.00
48352;BME280;34163;49.314;6.752;2023-08-08T19:42:00;99574.78;;;8.44;100.00
48352;BME280;34163;49.314;6.752;2023-08-08T19:44:29;99571.22;;;8.45;100.00
48352;BME280;34163;49.314;6.752;2023-08-08T19:47:00;99570.41;;;8.43;100.00
48352;BME280;34163;49.314;6.752;2023-08-08T19:49:25;99569.03;;;8.33;100.00
48352;BME280;34163;49.314;6.752;2023-08-08T19:51:52;99566.25;;;8.36;100.00
48352;BME280;34163;49.314;6.752;2023-08-08T19:54:17;99570.56;;;8.39;100.00
48352;BME280;34163;49.314;6.752;2023-08-08T19:56:42;99567.78;;;8.42;100.00
48352;BME280;34163;49.314;6.752;2023-08-08T19:59:08;99569.66;;;8.40;100.00
48352;BME280;34163;49.314;6.752;2023-08-08T20:01:33;99566.19;;;8.37;100.00
48352;BME280;34163;49.314;6.752;2023-08-08T20:04:00;99564.41;;;8.38;100.00
48352;BME280;34163;49.314;6.752;2023-08-08T20:06:25;99568.06;;;8.34;100.00
48352;BME280;34163;49.314;6.752;2023-08-08T20:08:51;99562.22;;;8.26;100.00
48352;BME280;34163;49.314;6.752;2023-08-08T20:11:16;99558.41;;;8.34;100.00
48352;BME280;34163;49.314;6.752;2023-08-08T20:13:41;99565.50;;;8.32;100.00
48352;BME280;34163;49.314;6.752;2023-08-08T20:16:07;99552.56;;;8.25;100.00
48352;BME280;34163;49.314;6.752;2023-08-08T20:18:32;99554.31;;;8.26;100.00
48352;BME280;34163;49.314;6.752;2023-08-08T20:20:58;99552.47;;;8.28;100.00
48352;BME280;34163;49.314;6.752;2023-08-08T20:23:23;99549.81;;;8.28;100.00
48352;BME280;34163;49.314;6.752;2023-08-08T20:25:48;99552.56;;;8.25;100.00
48352;BME280;34163;49.314;6.752;2023-08-08T20:28:14;99554.31;;;8.26;100.00
48352;BME280;34163;49.314;6.752;2023-08-08T20:30:39;99547.56;;;8.18;100.00
48352;BME280;34163;49.314;6.752;2023-08-08T20:33:05;99553.63;;;8.21;100.00
48352;BME280;34163;49.314;6.752;2023-08-08T20:35:30;99549.13;;;8.23;100.00
48352;BME280;34163;49.314;6.752;2023-08-08T20:37:56;99541.91;;;8.28;100.00
48352;BME280;34163;49.314;6.752;2023-08-08T20:40:22;99542.28;;;8.18;100.00